createdAt,value
2023-05-20T00:02:04.902Z,7.60
2023-05-20T00:05:09.292Z,4.50
2023-05-20T00:08:13.524Z,6.57
2023-05-20T00:11:16.398Z,9.50
2023-05-20T00:14:19.144Z,4.13
2023-05-20T00:17:21.917Z,9.13
2023-05-20T00:20:25.863Z,5.37
2023-05-20T00:23:30.045Z,7.80
2023-05-20T00:26:32.773Z,5.13
2023-05-20T00:29:35.776Z,3.70
2023-05-20T00:32:38.569Z,4.67
2023-05-20T00:35:41.363Z,5.10
2023-05-20T00:38:45.560Z,4.77
2023-05-20T00:41:48.366Z,6.20
2023-05-20T00:44:51.490Z,6.37
2023-05-20T00:47:57.281Z,3.87
2023-05-20T00:51:01.130Z,4.93
2023-05-20T00:54:05.321Z,3.57
2023-05-20T00:57:09.301Z,4.70
2023-05-20T01:00:13.733Z,5.27
2023-05-20T01:03:17.077Z,5.03
2023-05-20T01:06:20.184Z,5.37
2023-05-20T01:13:48.828Z,5.67
2023-05-20T01:16:54.277Z,7.97
2023-05-20T01:19:57.273Z,5.83
2023-05-20T01:23:02.316Z,6.57
2023-05-20T01:26:06.521Z,5.53
2023-05-20T01:29:09.335Z,5.30
2023-05-20T01:32:13.692Z,9.10
2023-05-20T01:35:18.047Z,7.13
2023-05-20T01:38:24.410Z,5.73
2023-05-20T01:41:28.770Z,8.60
2023-05-20T01:44:31.939Z,7.20
2023-05-20T01:47:34.918Z,8.17
2023-05-20T01:50:37.645Z,6.10
2023-05-20T01:53:41.798Z,6.60
2023-05-20T01:56:46.757Z,6.93
2023-05-20T01:59:49.812Z,6.13
2023-05-20T02:02:52.990Z,6.13
2023-05-20T02:05:55.838Z,8.27
2023-05-20T02:09:00.366Z,6.47
2023-05-20T02:12:03.196Z,7.00
2023-05-20T02:15:07.409Z,9.10
2023-05-20T02:18:12.548Z,7.60
2023-05-20T02:21:15.357Z,7.13
2023-05-20T02:24:21.132Z,6.07
2023-05-20T02:27:23.876Z,7.23
2023-05-20T02:30:28.241Z,8.90
2023-05-20T02:33:30.998Z,5.67
2023-05-20T02:36:33.788Z,5.10
2023-05-20T02:39:37.890Z,5.77
2023-05-20T02:42:42.180Z,7.77
2023-05-20T02:45:45.170Z,8.10
2023-05-20T02:48:48.009Z,7.73
2023-05-20T02:51:50.946Z,7.13
2023-05-20T02:54:55.122Z,6.50
2023-05-20T02:57:57.953Z,5.57
2023-05-20T03:01:00.998Z,7.20
2023-05-20T03:04:04.718Z,6.03
2023-05-20T03:07:09.032Z,5.53
2023-05-20T03:10:13.566Z,5.07
2023-05-20T03:13:16.490Z,5.97
2023-05-20T03:16:19.356Z,6.53
2023-05-20T03:19:22.180Z,7.73
2023-05-20T03:22:24.973Z,7.97
2023-05-20T03:25:29.636Z,5.33
2023-05-20T03:28:54.676Z,8.10
2023-05-20T03:31:57.391Z,5.83
2023-05-20T03:35:00.192Z,6.30
2023-05-20T03:38:03.167Z,6.57
2023-05-20T03:41:07.285Z,7.57
2023-05-20T03:44:09.989Z,7.53
2023-05-20T03:47:12.740Z,5.20
2023-05-20T03:50:15.587Z,8.90
2023-05-20T03:53:20.221Z,4.27
2023-05-20T03:56:24.644Z,6.47
2023-05-20T03:59:27.373Z,5.67
2023-05-20T04:02:30.965Z,7.20
2023-05-20T04:05:34.415Z,5.23
2023-05-20T04:08:37.651Z,6.03
2023-05-20T04:11:41.714Z,9.13
2023-05-20T04:14:44.413Z,9.13
2023-05-20T04:17:48.564Z,8.73
2023-05-20T04:20:56.516Z,6.70
2023-05-20T04:23:59.281Z,7.93
2023-05-20T04:27:03.438Z,6.63
2023-05-20T04:30:08.082Z,6.63
2023-05-20T04:33:11.260Z,5.00
2023-05-20T04:36:16.604Z,6.17
2023-05-20T04:39:20.605Z,5.87
2023-05-20T04:42:24.839Z,8.83
2023-05-20T04:45:27.719Z,9.03
2023-05-20T04:48:30.473Z,9.80
2023-05-20T04:51:34.207Z,8.63
2023-05-20T04:54:36.966Z,9.77
2023-05-20T04:57:42.213Z,7.30
2023-05-20T05:00:46.067Z,7.37
2023-05-20T05:03:48.763Z,7.73
2023-05-20T05:06:52.030Z,7.70
2023-05-20T05:09:54.787Z,15.07
2023-05-20T05:12:58.904Z,11.30
2023-05-20T05:16:02.455Z,8.17
2023-05-20T05:19:05.299Z,8.23
2023-05-20T05:22:08.089Z,7.80
2023-05-20T05:25:12.076Z,9.50
2023-05-20T05:28:16.134Z,7.97
2023-05-20T05:31:18.950Z,7.90
2023-05-20T05:34:22.502Z,8.40
2023-05-20T05:37:25.397Z,6.90
2023-05-20T05:40:28.427Z,10.17
2023-05-20T05:43:32.669Z,7.30
2023-05-20T05:46:35.799Z,8.10
2023-05-20T05:49:38.579Z,11.57
2023-05-20T05:52:41.426Z,9.97
2023-05-20T05:55:44.126Z,10.20
2023-05-20T05:58:48.693Z,8.20
2023-05-20T06:01:51.458Z,7.60
2023-05-20T06:04:54.524Z,4.73
2023-05-20T06:07:57.555Z,7.10
2023-05-20T06:11:00.256Z,6.77
2023-05-20T06:14:05.081Z,5.73
2023-05-20T06:17:08.022Z,6.80
2023-05-20T06:20:11.496Z,6.33
2023-05-20T06:23:14.332Z,6.23
2023-05-20T06:26:17.194Z,8.33
2023-05-20T06:29:21.710Z,7.70
2023-05-20T06:32:24.461Z,5.83
2023-05-20T06:35:27.271Z,6.97
2023-05-20T06:38:30.049Z,5.00
2023-05-20T06:41:32.819Z,6.57
2023-05-20T06:44:37.002Z,5.50
2023-05-20T06:47:39.889Z,8.33
2023-05-20T06:50:42.688Z,6.80
2023-05-20T06:53:45.583Z,7.40
2023-05-20T06:56:48.811Z,11.17
2023-05-20T06:59:53.058Z,7.13
2023-05-20T07:02:56.158Z,8.80
2023-05-20T07:05:59.175Z,7.50
2023-05-20T07:09:02.181Z,10.00
2023-05-20T07:12:05.318Z,8.20
2023-05-20T07:15:10.719Z,7.87
2023-05-20T07:18:13.599Z,7.33
2023-05-20T07:21:16.530Z,9.70
2023-05-20T07:24:21.667Z,8.67
2023-05-20T07:27:24.530Z,7.93
2023-05-20T07:30:29.034Z,9.97
2023-05-20T07:33:34.737Z,7.17
2023-05-20T07:36:38.302Z,8.13
2023-05-20T07:39:41.290Z,9.17
2023-05-20T07:42:44.133Z,9.60
2023-05-20T07:45:48.620Z,8.10
2023-05-20T07:48:51.908Z,8.37
2023-05-20T07:51:54.633Z,8.50
2023-05-20T07:54:57.355Z,8.07
2023-05-20T07:58:00.114Z,12.93
2023-05-20T08:01:04.210Z,9.17
2023-05-20T08:04:07.026Z,6.50
2023-05-20T08:07:09.905Z,5.83
2023-05-20T08:10:13.675Z,6.97
2023-05-20T08:13:16.438Z,10.73
2023-05-20T08:16:22.428Z,9.47
2023-05-20T08:19:25.358Z,9.87
2023-05-20T08:22:28.257Z,8.23
2023-05-20T08:25:31.280Z,10.80
2023-05-20T08:28:34.298Z,9.00
2023-05-20T08:31:38.521Z,11.10
2023-05-20T08:34:42.786Z,9.13
2023-05-20T08:37:45.505Z,8.60
2023-05-20T08:40:53.100Z,8.33
2023-05-20T08:43:56.134Z,10.57
2023-05-20T08:47:00.638Z,9.63
2023-05-20T08:50:04.038Z,8.00
2023-05-20T08:53:07.329Z,11.37
2023-05-20T08:56:12.709Z,10.87
2023-05-20T08:59:16.138Z,11.03
2023-05-20T09:02:20.146Z,10.77
2023-05-20T09:05:23.650Z,10.83
2023-05-20T09:08:27.297Z,6.77
2023-05-20T09:11:31.071Z,11.60
2023-05-20T09:14:33.744Z,9.70
2023-05-20T09:17:38.551Z,9.27
2023-05-20T09:20:41.863Z,9.13
2023-05-20T09:23:49.105Z,10.77
2023-05-20T09:26:52.263Z,9.23
2023-05-20T09:29:55.179Z,9.13
2023-05-20T09:33:01.115Z,12.30
2023-05-20T09:36:05.890Z,10.40
2023-05-20T09:39:10.801Z,10.63
2023-05-20T09:42:19.344Z,13.50
2023-05-20T09:45:23.278Z,9.70
2023-05-20T09:48:28.534Z,17.73
2023-05-20T09:51:32.401Z,13.70
2023-05-20T09:54:37.493Z,11.20
2023-05-20T09:57:40.266Z,11.23
2023-05-20T10:00:43.106Z,11.97
2023-05-20T10:03:47.503Z,9.77
2023-05-20T10:07:30.574Z,10.27
2023-05-20T10:10:48.536Z,10.03
2023-05-20T10:14:09.035Z,9.60
2023-05-20T10:17:18.437Z,9.57
2023-05-20T10:20:23.052Z,12.03
2023-05-20T10:23:29.744Z,10.10
2023-05-20T10:26:36.570Z,11.17
2023-05-20T10:32:56.871Z,10.97
2023-05-20T10:36:03.010Z,7.97
2023-05-20T10:39:05.854Z,9.70
2023-05-20T10:42:09.469Z,9.60
2023-05-20T10:45:13.243Z,10.53
2023-05-20T10:48:22.424Z,8.60
2023-05-20T10:51:29.604Z,9.27
2023-05-20T10:54:37.017Z,8.70
2023-05-20T10:57:39.834Z,9.53
2023-05-20T11:00:45.031Z,11.17
2023-05-20T11:03:48.459Z,9.57
2023-05-20T11:06:54.206Z,9.67
2023-05-20T11:09:57.523Z,8.90
2023-05-20T11:13:02.166Z,5.50
2023-05-20T11:16:06.894Z,9.07
2023-05-20T11:19:10.338Z,10.40
2023-05-20T11:22:14.679Z,10.77
2023-05-20T11:25:18.798Z,10.97
2023-05-20T11:28:22.732Z,9.50
2023-05-20T11:31:26.929Z,7.73
2023-05-20T11:34:35.333Z,6.77
2023-05-20T11:37:39.394Z,10.30
2023-05-20T11:40:52.784Z,10.90
2023-05-20T11:43:59.529Z,7.70
2023-05-20T11:47:03.760Z,10.70
2023-05-20T11:50:10.650Z,8.50
2023-05-20T11:53:17.797Z,9.83
2023-05-20T11:56:21.601Z,10.87
2023-05-20T11:59:28.279Z,6.33
2023-05-20T12:02:31.484Z,6.67
2023-05-20T12:05:34.333Z,9.03
2023-05-20T12:08:38.481Z,9.47
2023-05-20T12:11:42.030Z,10.70
2023-05-20T12:14:45.455Z,10.07
2023-05-20T12:17:49.992Z,8.73
2023-05-20T12:20:52.809Z,9.33
2023-05-20T12:23:58.164Z,7.27
2023-05-20T12:27:01.133Z,10.20
2023-05-20T12:30:04.553Z,9.67
2023-05-20T12:33:07.634Z,8.57
2023-05-20T12:36:10.546Z,8.23
2023-05-20T12:39:15.128Z,10.13
2023-05-20T12:42:17.858Z,11.83
2023-05-20T12:45:20.544Z,6.13
2023-05-20T12:48:23.848Z,9.87
2023-05-20T12:51:26.958Z,11.73
2023-05-20T12:54:31.441Z,9.03
2023-05-20T12:57:34.173Z,13.43
2023-05-20T13:00:37.433Z,7.77
2023-05-20T13:03:40.416Z,11.20
2023-05-20T13:06:43.926Z,11.17
2023-05-20T13:09:47.959Z,8.37
2023-05-20T13:12:51.026Z,8.73
2023-05-20T13:15:53.729Z,9.20
2023-05-20T13:18:56.708Z,13.17
2023-05-20T13:21:59.505Z,8.00
2023-05-20T13:25:04.398Z,9.13
2023-05-20T13:28:07.641Z,9.90
2023-05-20T13:31:12.462Z,9.50
2023-05-20T13:34:15.264Z,9.40
2023-05-20T13:37:18.036Z,7.90
2023-05-20T13:40:22.491Z,11.43
2023-05-20T13:43:25.834Z,10.67
2023-05-20T13:46:28.562Z,12.70
2023-05-20T13:49:31.925Z,12.03
2023-05-20T13:52:34.699Z,9.60
2023-05-20T13:55:38.863Z,11.30
2023-05-20T13:58:42.135Z,9.40
2023-05-20T14:01:45.841Z,12.03
2023-05-20T14:04:48.893Z,15.07
2023-05-20T14:07:52.058Z,11.30
2023-05-20T14:10:56.179Z,14.90
2023-05-20T14:13:59.168Z,9.80
2023-05-20T14:17:02.043Z,10.67
2023-05-20T14:20:07.042Z,10.70
2023-05-20T14:23:09.945Z,9.67
2023-05-20T14:26:14.618Z,11.63
2023-05-20T14:29:17.749Z,8.73
2023-05-20T14:32:20.541Z,8.50
2023-05-20T14:35:23.986Z,11.00
2023-05-20T14:38:27.504Z,10.20
2023-05-20T14:41:31.939Z,11.77
2023-05-20T14:44:34.832Z,10.73
2023-05-20T14:47:40.085Z,12.67
2023-05-20T14:50:43.119Z,10.23
2023-05-20T14:53:46.000Z,11.17
2023-05-20T14:56:50.084Z,11.40
2023-05-20T14:59:53.308Z,9.70
2023-05-20T15:02:56.077Z,11.77
2023-05-20T15:05:59.198Z,11.33
2023-05-20T15:09:01.971Z,10.27
2023-05-20T15:12:07.132Z,10.97
2023-05-20T15:15:10.871Z,10.57
2023-05-20T15:18:14.238Z,13.13
2023-05-20T15:21:17.968Z,12.80
2023-05-20T15:24:20.948Z,8.63
2023-05-20T15:27:25.462Z,12.73
2023-05-20T15:30:28.180Z,14.73
2023-05-20T15:33:30.995Z,8.43
2023-05-20T15:36:33.844Z,6.97
2023-05-20T15:39:38.335Z,9.80
2023-05-20T15:42:42.492Z,10.80
2023-05-20T15:45:46.021Z,9.60
2023-05-20T15:48:48.861Z,10.43
2023-05-20T15:52:02.339Z,11.87
2023-05-20T15:55:09.725Z,9.40
2023-05-20T15:58:14.146Z,11.13
2023-05-20T16:01:17.482Z,9.77
2023-05-20T16:04:20.788Z,10.97
2023-05-20T16:07:23.779Z,13.47
2023-05-20T16:10:32.649Z,9.93
2023-05-20T16:13:37.745Z,13.07
2023-05-20T16:16:40.835Z,11.70
2023-05-20T16:19:43.630Z,12.77
2023-05-20T16:22:46.896Z,8.50
2023-05-20T16:25:49.592Z,9.80
2023-05-20T16:28:53.767Z,10.93
2023-05-20T16:31:57.151Z,11.67
2023-05-20T16:35:00.062Z,9.20
2023-05-20T16:38:03.092Z,9.73
2023-05-20T16:41:06.045Z,11.07
2023-05-20T16:44:10.350Z,12.40
2023-05-20T16:47:13.396Z,12.67
2023-05-20T16:50:16.142Z,13.30
2023-05-20T16:53:18.930Z,9.97
2023-05-20T16:56:22.997Z,12.20
2023-05-20T16:59:30.084Z,11.83
2023-05-20T17:02:32.857Z,9.83
2023-05-20T17:05:35.624Z,15.53
2023-05-20T17:08:39.109Z,14.37
2023-05-20T17:11:41.820Z,17.00
2023-05-20T17:14:46.061Z,9.87
2023-05-20T17:17:48.779Z,8.83
2023-05-20T17:20:51.739Z,12.60
2023-05-20T17:23:55.017Z,11.63
2023-05-20T17:26:57.753Z,12.50
2023-05-20T17:30:02.313Z,12.87
2023-05-20T17:33:05.080Z,12.97
2023-05-20T17:36:08.315Z,11.50
2023-05-20T17:39:11.071Z,14.53
2023-05-20T17:42:13.947Z,10.30
2023-05-20T17:45:18.101Z,13.77
2023-05-20T17:48:21.105Z,16.70
2023-05-20T17:51:23.980Z,11.00
2023-05-20T17:54:26.974Z,13.03
2023-05-20T17:57:29.732Z,12.13
2023-05-20T18:00:43.138Z,12.20
2023-05-20T18:03:46.259Z,14.67
2023-05-20T18:06:49.122Z,13.50
2023-05-20T18:09:51.868Z,11.60
2023-05-20T18:12:54.554Z,12.00
2023-05-20T18:15:58.709Z,13.40
2023-05-20T18:19:02.736Z,13.27
2023-05-20T18:22:07.210Z,15.23
2023-05-20T18:25:11.615Z,13.00
2023-05-20T18:28:14.321Z,16.00
2023-05-20T18:31:18.562Z,15.20
2023-05-20T18:34:21.334Z,14.77
2023-05-20T18:37:24.145Z,15.97
2023-05-20T18:40:28.127Z,15.23
2023-05-20T18:43:30.972Z,17.10
2023-05-20T18:46:35.199Z,15.23
2023-05-20T18:49:37.966Z,12.87
2023-05-20T18:52:40.779Z,13.07
2023-05-20T18:55:43.614Z,13.00
2023-05-20T18:58:46.373Z,13.50
2023-05-20T19:01:50.510Z,15.53
2023-05-20T19:04:53.180Z,17.20
2023-05-20T19:07:56.162Z,20.30
2023-05-20T19:10:59.014Z,16.80
2023-05-20T19:14:01.993Z,14.60
2023-05-20T19:17:06.688Z,14.53
2023-05-20T19:20:10.488Z,19.70
2023-05-20T19:23:13.226Z,29.47
2023-05-20T19:26:16.034Z,20.27
2023-05-20T19:29:18.737Z,19.23
2023-05-20T19:32:22.818Z,16.90
2023-05-20T19:35:25.627Z,15.47
2023-05-20T19:38:28.438Z,18.57
2023-05-20T19:41:31.743Z,17.23
2023-05-20T19:44:34.478Z,18.10
2023-05-20T19:47:39.023Z,20.77
2023-05-20T19:50:41.910Z,17.50
2023-05-20T19:53:44.732Z,21.50
2023-05-20T19:56:47.507Z,20.70
2023-05-20T19:59:52.292Z,19.27
2023-05-20T20:02:57.962Z,18.57
2023-05-20T20:06:00.970Z,17.23
2023-05-20T20:09:04.831Z,22.03
2023-05-20T20:12:09.276Z,22.03
2023-05-20T20:15:12.499Z,19.70
2023-05-20T20:18:17.220Z,19.67
2023-05-20T20:21:20.151Z,21.47
2023-05-20T20:24:24.117Z,21.70
2023-05-20T20:27:26.984Z,21.27
2023-05-20T20:30:29.737Z,20.70
2023-05-20T20:33:33.815Z,18.17
2023-05-20T20:36:36.772Z,18.80
2023-05-20T20:39:39.488Z,24.13
2023-05-20T20:42:44.951Z,20.80
2023-05-20T20:45:47.827Z,21.87
2023-05-20T20:48:51.961Z,24.53
2023-05-20T20:51:57.136Z,22.90
2023-05-20T20:55:00.267Z,24.43
2023-05-20T20:58:05.255Z,23.73
2023-05-20T21:01:10.076Z,21.27
2023-05-20T21:04:14.529Z,20.37
2023-05-20T21:07:18.494Z,19.83
2023-05-20T21:10:21.295Z,18.37
2023-05-20T21:13:24.055Z,21.87
2023-05-20T21:16:26.751Z,21.30
2023-05-20T21:19:30.917Z,20.83
2023-05-20T21:22:33.827Z,21.00
2023-05-20T21:25:36.834Z,24.73
2023-05-20T21:28:39.826Z,20.60
2023-05-20T21:31:42.592Z,21.03
2023-05-20T21:34:46.690Z,22.67
2023-05-20T21:37:49.937Z,25.40
2023-05-20T21:40:52.702Z,20.40
2023-05-20T21:43:55.487Z,22.27
2023-05-20T21:46:58.294Z,21.90
2023-05-20T21:50:03.321Z,22.90
2023-05-20T21:53:06.320Z,23.33
2023-05-20T21:56:09.084Z,23.80
2023-05-20T21:59:11.858Z,25.90
2023-05-20T22:02:14.567Z,22.33
2023-05-20T22:05:19.759Z,22.20
2023-05-20T22:08:22.682Z,24.10
2023-05-20T22:11:26.380Z,22.83
2023-05-20T22:14:29.543Z,26.90
2023-05-20T22:17:34.073Z,25.73
2023-05-20T22:20:38.519Z,27.53
2023-05-20T22:23:41.373Z,22.93
2023-05-20T22:26:44.325Z,23.07
2023-05-20T22:29:47.434Z,25.90
2023-05-20T22:32:50.376Z,29.40
2023-05-20T22:35:54.570Z,26.97
2023-05-20T22:38:57.752Z,23.40
2023-05-20T22:42:00.556Z,28.07
2023-05-20T22:45:04.369Z,30.23
2023-05-20T22:48:07.239Z,25.37
2023-05-20T22:51:11.611Z,25.27
2023-05-20T22:54:14.467Z,24.87
2023-05-20T22:57:17.369Z,27.00
2023-05-20T23:00:20.166Z,29.00
2023-05-20T23:03:23.399Z,26.50
2023-05-20T23:06:27.588Z,27.97
2023-05-20T23:09:30.289Z,26.37
2023-05-20T23:12:33.097Z,28.90
2023-05-20T23:15:36.715Z,26.03
2023-05-20T23:18:40.002Z,26.77
2023-05-20T23:21:44.146Z,29.50
2023-05-20T23:24:46.873Z,26.60
2023-05-20T23:27:49.632Z,27.80
2023-05-20T23:30:52.449Z,28.70
2023-05-20T23:33:57.875Z,26.70
2023-05-20T23:37:02.384Z,25.33
2023-05-20T23:40:09.072Z,27.50
2023-05-20T23:43:11.790Z,31.33
2023-05-20T23:46:14.597Z,25.40
2023-05-20T23:49:18.427Z,26.27
2023-05-20T23:52:22.530Z,28.43
2023-05-20T23:55:25.616Z,27.83
2023-05-20T23:58:28.321Z,25.40
